createdAt,value
2019-01-22T00:00:49.887Z,91.20
2019-01-22T00:03:18.077Z,91.40
2019-01-22T00:05:45.898Z,91.40
2019-01-22T00:08:13.787Z,91.40
2019-01-22T00:10:41.625Z,91.50
2019-01-22T00:13:09.700Z,91.50
2019-01-22T00:15:37.470Z,91.30
2019-01-22T00:18:05.242Z,91.30
2019-01-22T00:20:33.095Z,91.30
2019-01-22T00:23:02.960Z,91.10
2019-01-22T00:25:30.548Z,91.10
2019-01-22T00:27:58.397Z,91.10
2019-01-22T00:30:26.261Z,91.00
2019-01-22T00:32:54.481Z,91.40
2019-01-22T00:35:22.168Z,91.30
2019-01-22T00:37:50.265Z,91.40
2019-01-22T00:40:18.281Z,91.40
2019-01-22T00:42:46.328Z,91.20
2019-01-22T00:45:14.220Z,90.90
2019-01-22T00:47:42.283Z,90.90
2019-01-22T00:50:12.152Z,90.90
2019-01-22T00:52:41.405Z,91.00
2019-01-22T00:55:10.741Z,90.90
2019-01-22T00:57:40.072Z,90.80
2019-01-22T01:00:12.808Z,90.90
2019-01-22T01:02:42.328Z,91.20
2019-01-22T01:05:10.249Z,90.90
2019-01-22T01:07:38.299Z,90.90
2019-01-22T01:10:07.477Z,91.10
2019-01-22T01:12:36.808Z,91.10
2019-01-22T01:15:07.060Z,91.40
2019-01-22T01:17:36.329Z,91.40
2019-01-22T01:20:07.105Z,91.40
2019-01-22T01:22:36.860Z,91.30
2019-01-22T01:25:04.971Z,91.20
2019-01-22T01:27:34.270Z,91.00
2019-01-22T01:30:02.016Z,91.20
2019-01-22T01:32:31.373Z,91.20
2019-01-22T01:34:59.232Z,91.50
2019-01-22T01:37:27.313Z,91.60
2019-01-22T01:39:55.045Z,91.60
2019-01-22T01:42:22.897Z,91.80
2019-01-22T01:44:50.633Z,92.20
2019-01-22T01:47:18.336Z,92.00
2019-01-22T01:49:46.174Z,92.00
2019-01-22T01:52:14.135Z,92.30
2019-01-22T01:54:41.917Z,92.60
2019-01-22T01:57:09.681Z,92.50
2019-01-22T01:59:37.620Z,92.30
2019-01-22T02:02:05.468Z,92.20
2019-01-22T02:04:33.404Z,92.10
2019-01-22T02:07:01.092Z,92.00
2019-01-22T02:09:28.954Z,92.30
2019-01-22T02:11:56.709Z,91.80
2019-01-22T02:14:33.894Z,92.30
2019-01-22T02:17:11.487Z,92.70
2019-01-22T02:19:54.089Z,92.80
2019-01-22T02:23:04.665Z,93.00
2019-01-22T02:26:16.466Z,93.10
2019-01-22T02:29:34.319Z,92.80
2019-01-22T02:32:36.879Z,92.50
2019-01-22T02:35:36.524Z,92.50
2019-01-22T02:38:52.937Z,92.40
2019-01-22T02:41:36.231Z,92.30
2019-01-22T02:45:02.205Z,92.20
2019-01-22T02:48:28.286Z,92.10
2019-01-22T02:51:16.235Z,92.00
2019-01-22T02:54:30.688Z,91.70
2019-01-22T02:57:33.292Z,91.70
2019-01-22T03:00:52.470Z,91.80
2019-01-22T03:03:37.273Z,91.70
2019-01-22T03:06:58.908Z,91.50
2019-01-22T03:09:54.549Z,91.20
2019-01-22T03:12:30.689Z,91.50
2019-01-22T03:15:43.655Z,91.30
2019-01-22T03:18:50.546Z,91.30
2019-01-22T03:21:42.231Z,91.30
2019-01-22T03:25:08.378Z,91.20
2019-01-22T03:28:27.930Z,91.30
2019-01-22T03:31:34.154Z,91.10
2019-01-22T03:34:51.353Z,91.00
2019-01-22T03:38:14.685Z,91.50
2019-01-22T03:40:59.890Z,91.10
2019-01-22T03:43:52.829Z,90.90
2019-01-22T03:46:35.155Z,91.20
2019-01-22T03:49:42.272Z,90.90
2019-01-22T03:52:39.806Z,90.90
2019-01-22T03:56:02.682Z,91.10
2019-01-22T03:58:32.134Z,91.30
2019-01-22T04:01:04.551Z,91.30
2019-01-22T04:03:32.573Z,91.20
2019-01-22T04:06:03.951Z,91.30
2019-01-22T04:08:33.000Z,91.50
2019-01-22T04:11:08.049Z,91.50
2019-01-22T04:13:36.320Z,91.50
2019-01-22T04:16:04.485Z,91.30
2019-01-22T04:18:32.449Z,91.30
2019-01-22T04:21:00.238Z,91.40
2019-01-22T04:24:07.232Z,91.30
2019-01-22T04:26:58.137Z,91.40
2019-01-22T04:29:52.981Z,91.50
2019-01-22T04:32:27.769Z,91.50
2019-01-22T04:35:15.394Z,91.30
2019-01-22T04:38:28.531Z,90.90
2019-01-22T04:41:23.355Z,91.70
2019-01-22T04:44:36.970Z,91.70
2019-01-22T04:47:41.391Z,91.60
2019-01-22T04:50:47.228Z,91.70
2019-01-22T04:53:45.126Z,92.00
2019-01-22T04:56:44.216Z,92.30
2019-01-22T05:00:00.551Z,92.40
2019-01-22T05:03:17.945Z,92.40
2019-01-22T05:06:20.325Z,92.50
2019-01-22T05:09:50.598Z,92.60
2019-01-22T05:13:01.853Z,93.00
2019-01-22T05:16:09.701Z,92.90
2019-01-22T05:19:04.323Z,92.80
2019-01-22T05:22:05.693Z,92.60
2019-01-22T05:24:50.318Z,92.70
2019-01-22T05:28:03.653Z,92.50
2019-01-22T05:31:13.542Z,92.50
2019-01-22T05:34:30.801Z,92.30
2019-01-22T05:37:45.068Z,92.20
2019-01-22T05:41:14.396Z,92.20
2019-01-22T05:44:23.418Z,92.10
2019-01-22T05:47:03.313Z,92.30
2019-01-22T05:49:58.588Z,92.20
2019-01-22T05:53:00.774Z,92.00
2019-01-22T05:55:37.279Z,92.00
2019-01-22T05:58:48.574Z,92.40
2019-01-22T06:01:26.422Z,92.40
2019-01-22T06:04:26.916Z,92.70
2019-01-22T06:07:39.804Z,93.00
2019-01-22T06:10:49.335Z,93.00
2019-01-22T06:13:36.773Z,93.20
2019-01-22T06:16:46.901Z,93.30
2019-01-22T06:19:47.873Z,93.40
2019-01-22T06:23:08.381Z,93.20
2019-01-22T06:26:08.009Z,93.20
2019-01-22T06:29:03.045Z,93.00
2019-01-22T06:32:24.260Z,93.00
2019-01-22T06:35:21.902Z,92.70
2019-01-22T06:38:30.859Z,92.50
2019-01-22T06:41:29.586Z,92.60
2019-01-22T06:44:40.657Z,92.50
2019-01-22T06:47:19.483Z,92.40
2019-01-22T06:50:09.521Z,92.30
2019-01-22T06:53:18.696Z,92.20
2019-01-22T06:56:16.553Z,92.20
2019-01-22T06:59:33.809Z,92.20
2019-01-22T07:02:42.220Z,92.20
2019-01-22T07:05:28.086Z,92.00
2019-01-22T07:08:38.904Z,92.00
2019-01-22T07:11:49.432Z,92.00
2019-01-22T07:14:50.566Z,91.80
2019-01-22T07:18:04.686Z,91.90
2019-01-22T07:21:16.758Z,91.90
2019-01-22T07:24:11.420Z,91.80
2019-01-22T07:27:22.756Z,91.90
2019-01-22T07:30:37.026Z,91.80
2019-01-22T07:33:53.165Z,92.00
2019-01-22T07:36:52.769Z,92.00
2019-01-22T07:40:00.286Z,92.20
2019-01-22T07:43:08.425Z,92.10
2019-01-22T07:46:32.093Z,92.20
2019-01-22T07:49:33.238Z,92.30
2019-01-22T07:52:23.838Z,92.50
2019-01-22T07:55:43.857Z,92.50
2019-01-22T07:59:10.019Z,92.50
2019-01-22T08:02:13.425Z,92.70
2019-01-22T08:05:26.025Z,93.00
2019-01-22T08:08:21.674Z,93.30
2019-01-22T08:11:41.475Z,93.40
2019-01-22T08:14:42.017Z,93.20
2019-01-22T08:17:41.600Z,93.30
2019-01-22T08:20:53.149Z,93.40
2019-01-22T08:24:12.422Z,93.40
2019-01-22T08:27:51.377Z,93.10
2019-01-22T08:30:39.465Z,93.60
2019-01-22T08:33:59.799Z,94.30
2019-01-22T08:37:16.725Z,94.40
2019-01-22T08:40:01.131Z,94.80
2019-01-22T08:43:08.725Z,94.90
2019-01-22T08:46:06.452Z,95.00
2019-01-22T08:49:27.672Z,94.90
2019-01-22T08:52:22.333Z,95.40
2019-01-22T08:55:35.616Z,95.30
2019-01-22T08:59:01.717Z,95.20
2019-01-22T09:02:05.899Z,95.30
2019-01-22T09:05:28.953Z,95.30
2019-01-22T09:08:09.838Z,95.10
2019-01-22T09:11:08.565Z,95.30
2019-01-22T09:14:07.019Z,95.50
2019-01-22T09:17:27.065Z,95.70
2019-01-22T09:20:25.018Z,95.60
2019-01-22T09:23:28.852Z,95.50
2019-01-22T09:26:24.591Z,95.60
2019-01-22T09:29:35.709Z,95.60
2019-01-22T09:32:36.084Z,95.50
2019-01-22T09:36:14.806Z,95.90
2019-01-22T09:38:44.109Z,95.70
2019-01-22T09:41:12.017Z,95.70
2019-01-22T09:43:39.741Z,95.70
2019-01-22T09:46:07.754Z,95.80
2019-01-22T09:48:35.531Z,96.00
2019-01-22T09:51:03.274Z,96.10
2019-01-22T09:53:31.321Z,95.80
2019-01-22T09:56:00.873Z,95.90
2019-01-22T09:58:28.582Z,96.00
2019-01-22T10:00:56.417Z,96.00
2019-01-22T10:03:24.235Z,95.80
2019-01-22T10:05:52.117Z,95.90
2019-01-22T10:08:19.808Z,95.70
2019-01-22T10:10:47.579Z,95.70
2019-01-22T10:13:15.544Z,95.40
2019-01-22T10:15:43.418Z,95.40
2019-01-22T10:18:11.285Z,95.50
2019-01-22T10:20:39.276Z,95.20
2019-01-22T10:23:07.229Z,94.90
2019-01-22T10:25:34.936Z,95.10
2019-01-22T10:28:02.904Z,95.30
2019-01-22T10:30:30.781Z,95.20
2019-01-22T10:32:58.632Z,95.00
2019-01-22T10:35:26.522Z,94.90
2019-01-22T10:37:54.269Z,94.80
2019-01-22T10:40:22.610Z,94.50
2019-01-22T10:42:51.270Z,94.50
2019-01-22T10:45:19.144Z,94.30
2019-01-22T10:47:46.990Z,94.50
2019-01-22T10:50:16.718Z,94.10
2019-01-22T10:52:45.992Z,94.00
2019-01-22T10:55:13.989Z,94.20
2019-01-22T10:57:41.820Z,93.80
2019-01-22T11:00:13.726Z,93.50
2019-01-22T11:02:43.073Z,93.40
2019-01-22T11:05:18.490Z,93.90
2019-01-22T11:07:47.777Z,93.70
2019-01-22T11:10:15.501Z,93.70
2019-01-22T11:12:43.292Z,93.70
2019-01-22T11:15:11.287Z,93.70
2019-01-22T11:17:39.071Z,93.40
2019-01-22T11:20:10.699Z,93.50
2019-01-22T11:22:39.967Z,93.50
2019-01-22T11:25:07.863Z,93.70
2019-01-22T11:27:37.197Z,93.30
2019-01-22T11:30:07.946Z,93.20
2019-01-22T11:32:37.221Z,92.90
2019-01-22T11:35:07.212Z,91.70
2019-01-22T11:37:36.687Z,91.90
2019-01-22T11:40:06.531Z,91.90
2019-01-22T11:42:35.814Z,92.00
2019-01-22T11:45:04.823Z,91.90
2019-01-22T11:47:33.639Z,91.40
2019-01-22T11:50:01.405Z,91.80
2019-01-22T11:52:30.767Z,91.90
2019-01-22T11:54:58.484Z,92.30
2019-01-22T11:57:26.339Z,92.40
2019-01-22T11:59:54.183Z,92.60
2019-01-22T12:02:22.004Z,92.30
2019-01-22T12:04:49.745Z,92.30
2019-01-22T12:07:17.588Z,92.20
2019-01-22T12:09:45.375Z,92.40
2019-01-22T12:12:13.223Z,92.40
2019-01-22T12:14:41.021Z,92.50
2019-01-22T12:17:08.780Z,92.00
2019-01-22T12:19:36.476Z,92.00
2019-01-22T12:22:04.360Z,91.70
2019-01-22T12:24:32.184Z,91.40
2019-01-22T12:27:00.178Z,91.90
2019-01-22T12:29:28.052Z,91.90
2019-01-22T12:31:56.362Z,91.50
2019-01-22T12:34:24.620Z,91.70
2019-01-22T12:36:52.641Z,91.80
2019-01-22T12:39:20.414Z,91.80
2019-01-22T12:41:48.200Z,91.30
2019-01-22T12:44:16.058Z,91.60
2019-01-22T12:46:43.752Z,91.40
2019-01-22T12:49:11.738Z,91.40
2019-01-22T12:51:39.425Z,91.10
2019-01-22T12:54:07.398Z,91.30
2019-01-22T12:56:35.281Z,91.40
2019-01-22T12:59:03.137Z,91.50
2019-01-22T13:01:30.916Z,91.60
2019-01-22T13:03:58.875Z,91.70
2019-01-22T13:06:26.570Z,91.60
2019-01-22T13:08:54.367Z,91.80
2019-01-22T13:11:22.075Z,91.00
2019-01-22T13:13:49.939Z,90.80
2019-01-22T13:16:17.715Z,90.60
2019-01-22T13:18:45.482Z,90.40
2019-01-22T13:21:13.165Z,90.50
2019-01-22T13:23:40.983Z,90.40
2019-01-22T13:26:11.635Z,90.50
2019-01-22T13:28:38.309Z,90.80
2019-01-22T13:31:06.090Z,90.80
2019-01-22T13:33:33.922Z,90.70
2019-01-22T13:36:01.773Z,90.60
2019-01-22T13:38:30.009Z,90.70
2019-01-22T13:40:57.961Z,90.90
2019-01-22T13:43:25.874Z,91.40
2019-01-22T13:45:53.816Z,91.20
2019-01-22T13:48:23.026Z,91.30
2019-01-22T13:50:51.233Z,90.70
2019-01-22T13:53:19.019Z,90.70
2019-01-22T13:55:46.853Z,90.70
2019-01-22T13:58:14.662Z,91.00
2019-01-22T14:00:42.683Z,90.90
2019-01-22T14:03:10.679Z,90.20
2019-01-22T14:05:38.532Z,90.50
2019-01-22T14:08:06.420Z,90.40
2019-01-22T14:10:34.288Z,90.40
2019-01-22T14:13:01.975Z,90.60
2019-01-22T14:15:32.836Z,90.50
2019-01-22T14:18:02.274Z,90.10
2019-01-22T14:20:30.696Z,90.60
2019-01-22T14:22:58.664Z,90.40
2019-01-22T14:25:26.353Z,90.30
2019-01-22T14:27:54.221Z,90.10
2019-01-22T14:30:24.968Z,90.00
2019-01-22T14:32:54.361Z,90.40
2019-01-22T14:35:22.178Z,90.30
2019-01-22T14:37:50.144Z,90.10
2019-01-22T14:40:18.367Z,89.90
2019-01-22T14:42:46.271Z,89.70
2019-01-22T14:45:14.559Z,89.70
2019-01-22T14:47:43.945Z,89.20
2019-01-22T14:50:14.670Z,90.00
2019-01-22T14:53:03.534Z,90.50
2019-01-22T14:55:31.515Z,90.40
2019-01-22T14:57:59.345Z,90.20
2019-01-22T15:00:27.845Z,89.70
2019-01-22T15:02:57.690Z,88.70
2019-01-22T15:05:26.111Z,89.80
2019-01-22T15:07:53.911Z,90.00
2019-01-22T15:10:21.645Z,90.00
2019-01-22T15:12:52.023Z,90.30
2019-01-22T15:15:21.417Z,90.60
2019-01-22T15:17:49.240Z,90.80
2019-01-22T15:20:19.309Z,90.60
2019-01-22T15:22:48.648Z,90.70
2019-01-22T15:25:17.131Z,90.80
2019-01-22T15:27:44.850Z,90.60
2019-01-22T15:30:14.792Z,90.80
2019-01-22T15:32:44.074Z,90.60
2019-01-22T15:35:12.261Z,90.50
2019-01-22T15:37:40.154Z,90.60
2019-01-22T15:40:13.706Z,90.50
2019-01-22T15:42:43.054Z,91.10
2019-01-22T15:45:10.935Z,90.80
2019-01-22T15:47:38.831Z,90.70
2019-01-22T15:50:08.547Z,90.80
2019-01-22T15:52:37.940Z,91.00
2019-01-22T15:55:08.782Z,91.00
2019-01-22T15:57:38.072Z,90.90
2019-01-22T16:00:08.394Z,91.20
2019-01-22T16:02:37.695Z,91.20
2019-01-22T16:05:05.885Z,91.40
2019-01-22T16:07:34.712Z,91.30
2019-01-22T16:10:03.559Z,91.50
2019-01-22T16:12:32.939Z,91.50
2019-01-22T16:15:00.662Z,91.40
2019-01-22T16:17:28.760Z,91.50
2019-01-22T16:19:56.585Z,91.50
2019-01-22T16:22:24.381Z,91.60
2019-01-22T16:24:52.206Z,90.90
2019-01-22T16:27:19.989Z,90.40
2019-01-22T16:29:47.826Z,90.30
2019-01-22T16:32:15.617Z,90.30
2019-01-22T16:34:43.329Z,90.30
2019-01-22T16:37:11.155Z,90.20
2019-01-22T16:39:39.098Z,90.40
2019-01-22T16:42:06.900Z,90.30
2019-01-22T16:44:34.807Z,90.30
2019-01-22T16:47:02.522Z,90.50
2019-01-22T16:49:30.541Z,90.60
2019-01-22T16:51:58.333Z,90.70
2019-01-22T16:54:26.302Z,90.60
2019-01-22T16:57:00.330Z,90.60
2019-01-22T16:59:24.190Z,90.70
2019-01-22T17:01:52.118Z,90.80
2019-01-22T17:04:20.085Z,91.50
2019-01-22T17:06:47.890Z,91.40
2019-01-22T17:09:15.664Z,91.50
2019-01-22T17:11:43.560Z,91.70
2019-01-22T17:14:11.375Z,91.50
2019-01-22T17:16:39.076Z,91.40
2019-01-22T17:19:07.040Z,91.30
2019-01-22T17:21:34.858Z,91.40
2019-01-22T17:24:02.606Z,91.40
2019-01-22T17:26:30.319Z,91.30
2019-01-22T17:28:58.248Z,91.50
2019-01-22T17:31:54.697Z,91.40
2019-01-22T17:34:25.102Z,91.60
2019-01-22T17:36:54.419Z,91.70
2019-01-22T17:39:22.212Z,91.60
2019-01-22T17:41:49.924Z,91.50
2019-01-22T17:44:17.735Z,91.40
2019-01-22T17:46:46.313Z,91.00
2019-01-22T17:49:14.048Z,91.10
2019-01-22T17:51:41.849Z,90.90
2019-01-22T17:54:09.818Z,90.90
2019-01-22T17:56:37.594Z,90.80
2019-01-22T17:59:05.499Z,90.90
2019-01-22T18:01:33.210Z,90.80
2019-01-22T18:04:01.107Z,90.80
2019-01-22T18:06:29.276Z,90.80
2019-01-22T18:08:57.098Z,90.90
2019-01-22T18:11:25.003Z,90.90
2019-01-22T18:13:52.862Z,90.60
2019-01-22T18:16:20.676Z,90.60
2019-01-22T18:18:48.498Z,90.40
2019-01-22T18:21:16.475Z,90.40
2019-01-22T18:23:44.374Z,90.10
2019-01-22T18:26:12.176Z,89.50
2019-01-22T18:28:39.886Z,89.40
2019-01-22T18:31:07.654Z,89.20
2019-01-22T18:33:35.511Z,89.10
2019-01-22T18:36:03.660Z,88.60
2019-01-22T18:38:31.478Z,89.10
2019-01-22T18:40:59.203Z,89.40
2019-01-22T18:43:27.113Z,89.20
2019-01-22T18:45:54.919Z,89.10
2019-01-22T18:48:22.791Z,89.70
2019-01-22T18:50:50.692Z,90.20
2019-01-22T18:53:18.675Z,90.20
2019-01-22T18:55:46.562Z,89.80
2019-01-22T18:58:14.522Z,89.80
2019-01-22T19:00:42.449Z,90.10
2019-01-22T19:03:12.132Z,90.20
2019-01-22T19:05:39.880Z,90.50
2019-01-22T19:08:07.900Z,90.70
2019-01-22T19:10:35.873Z,91.00
2019-01-22T19:13:03.898Z,90.80
2019-01-22T19:15:32.027Z,90.70
2019-01-22T19:18:00.046Z,90.50
2019-01-22T19:20:28.200Z,90.70
2019-01-22T19:22:56.025Z,90.90
2019-01-22T19:25:25.635Z,90.70
2019-01-22T19:27:54.384Z,90.90
2019-01-22T19:30:24.154Z,90.50
2019-01-22T19:32:53.563Z,90.50
2019-01-22T19:35:21.465Z,90.50
2019-01-22T19:37:49.293Z,90.50
2019-01-22T19:40:17.354Z,90.10
2019-01-22T19:42:45.933Z,89.90
2019-01-22T19:45:16.351Z,89.00
2019-01-22T19:47:45.876Z,89.70
2019-01-22T19:50:14.765Z,89.80
2019-01-22T19:52:42.928Z,89.80
2019-01-22T19:55:10.974Z,89.70
2019-01-22T19:57:41.133Z,90.00
2019-01-22T20:00:20.728Z,90.10
2019-01-22T20:02:50.083Z,90.00
2019-01-22T20:05:18.505Z,90.20
2019-01-22T20:07:46.653Z,90.20
2019-01-22T20:10:14.893Z,90.20
2019-01-22T20:12:43.693Z,90.10
2019-01-22T20:15:11.834Z,90.50
2019-01-22T20:17:41.232Z,90.20
2019-01-22T20:22:55.708Z,89.60
2019-01-22T20:25:23.843Z,89.00
2019-01-22T20:27:51.763Z,89.50
2019-01-22T20:30:22.564Z,89.70
2019-01-22T20:32:52.060Z,89.00
2019-01-22T20:35:20.030Z,89.20
2019-01-22T20:37:48.018Z,90.00
2019-01-22T20:40:17.239Z,90.20
2019-01-22T20:42:45.118Z,90.10
2019-01-22T20:45:15.067Z,90.20
2019-01-22T20:47:44.521Z,90.40
2019-01-22T20:50:19.028Z,90.50
2019-01-22T20:52:43.155Z,90.40
2019-01-22T20:55:12.840Z,90.50
2019-01-22T20:57:42.239Z,90.40
2019-01-22T21:00:15.457Z,90.40
2019-01-22T21:02:44.974Z,90.00
2019-01-22T21:05:18.148Z,90.10
2019-01-22T21:07:47.669Z,89.40
2019-01-22T21:10:18.353Z,89.20
2019-01-22T21:12:47.783Z,88.80
2019-01-22T21:15:15.923Z,89.00
2019-01-22T21:17:43.874Z,88.90
2019-01-22T21:20:11.744Z,89.40
2019-01-22T21:22:41.093Z,89.40
2019-01-22T21:25:10.283Z,90.00
2019-01-22T21:27:39.829Z,89.30
2019-01-22T21:30:10.269Z,89.20
2019-01-22T21:32:39.643Z,90.00
2019-01-22T21:35:07.472Z,89.70
2019-01-22T21:37:36.151Z,89.60
2019-01-22T21:40:05.135Z,89.40
2019-01-22T21:42:34.899Z,89.50
2019-01-22T21:45:04.731Z,89.70
2019-01-22T21:47:34.143Z,89.60
2019-01-22T21:50:02.084Z,89.70
2019-01-22T21:52:31.502Z,89.50
2019-01-22T21:54:59.230Z,89.10
2019-01-22T21:57:27.274Z,89.40
2019-01-22T21:59:55.422Z,89.30
2019-01-22T22:02:23.394Z,89.60
2019-01-22T22:04:51.314Z,89.70
2019-01-22T22:07:19.010Z,89.60
2019-01-22T22:09:46.778Z,89.70
2019-01-22T22:12:14.584Z,89.20
2019-01-22T22:14:42.494Z,89.80
2019-01-22T22:17:10.182Z,90.00
2019-01-22T22:19:42.137Z,89.90
2019-01-22T22:22:18.609Z,89.80
2019-01-22T22:24:50.074Z,89.60
2019-01-22T22:27:25.574Z,89.30
2019-01-22T22:30:00.728Z,88.70
2019-01-22T22:32:26.253Z,88.80
2019-01-22T22:34:54.009Z,88.40
2019-01-22T22:37:21.726Z,88.50
2019-01-22T22:39:49.492Z,88.90
2019-01-22T22:42:17.149Z,89.30
2019-01-22T22:44:45.029Z,88.30
2019-01-22T22:47:12.698Z,88.40
2019-01-22T22:49:40.819Z,88.20
2019-01-22T22:52:08.609Z,88.80
2019-01-22T22:54:36.590Z,88.30
2019-01-22T22:57:04.373Z,88.30
2019-01-22T22:59:32.217Z,88.40
2019-01-22T23:02:00.246Z,88.20
2019-01-22T23:04:28.371Z,88.20
2019-01-22T23:06:56.238Z,87.60
2019-01-22T23:09:24.286Z,87.90
2019-01-22T23:11:52.056Z,88.10
2019-01-22T23:14:20.145Z,87.00
2019-01-22T23:16:47.915Z,87.00
2019-01-22T23:19:15.617Z,87.10
2019-01-22T23:21:43.357Z,87.30
2019-01-22T23:24:11.129Z,87.20
2019-01-22T23:26:38.942Z,88.10
2019-01-22T23:29:06.834Z,87.80
2019-01-22T23:31:34.606Z,87.80
2019-01-22T23:34:02.280Z,87.50
2019-01-22T23:36:30.044Z,87.80
2019-01-22T23:38:57.896Z,87.40
2019-01-22T23:41:26.115Z,87.60
2019-01-22T23:43:53.855Z,87.30
2019-01-22T23:46:21.604Z,86.60
2019-01-22T23:48:49.366Z,86.80
2019-01-22T23:51:17.112Z,86.20
2019-01-22T23:53:44.917Z,85.90
2019-01-22T23:56:12.601Z,86.10
2019-01-22T23:58:40.470Z,86.00
